VLG5544 LPPR-LEBB
Flight info
| Callsign | VLG5544 |
|---|---|
| Flight time | 1h 11m |
| Altitude | 34000 |
| Route | BELDU DCT ADORO DCT FITSE DCT NUBLO DCT RONSI M190 SNR |
| Aircraft | A20N/M-SDE2E3FGHIRWXY/LB1 |
Departure
| Time | 2026-05-01 11:56 |
|---|---|
| Airport | Francisco de Sá Carneiro Airport (LPPR) |
Arrival
| Time | 2026-05-01 13:07 |
|---|---|
| Airport | Bilbao Airport (LEBB) |
| Time | Latitude | Longitude | Altitude | Speed | Heading |
|---|---|---|---|---|---|
| 2026-05-01 11:21 | 41.23505 | -8.67280 | 239 ft | 0 kts | 114° |
| 2026-05-01 11:42 | 41.23508 | -8.67289 | 239 ft | 2 kts | 114° |
| 2026-05-01 11:42 | 41.23514 | -8.67307 | 238 ft | 2 kts | 114° |
| 2026-05-01 11:43 | 41.23520 | -8.67325 | 237 ft | 2 kts | 114° |
| 2026-05-01 11:43 | 41.23526 | -8.67343 | 236 ft | 2 kts | 114° |
| 2026-05-01 11:43 | 41.23532 | -8.67361 | 236 ft | 2 kts | 112° |
| 2026-05-01 11:44 | 41.23549 | -8.67369 | 235 ft | 1 kts | 215° |
| 2026-05-01 11:44 | 41.23555 | -8.67364 | 235 ft | 0 kts | 212° |
| 2026-05-01 11:51 | 41.23554 | -8.67364 | 235 ft | 0 kts | 212° |
| 2026-05-01 11:51 | 41.23544 | -8.67373 | 235 ft | 2 kts | 210° |
| 2026-05-01 11:51 | 41.23518 | -8.67387 | 235 ft | 4 kts | 195° |
| 2026-05-01 11:52 | 41.23484 | -8.67388 | 235 ft | 5 kts | 171° |
| 2026-05-01 11:52 | 41.23446 | -8.67378 | 235 ft | 5 kts | 168° |
| 2026-05-01 11:52 | 41.23404 | -8.67366 | 236 ft | 6 kts | 169° |
| 2026-05-01 11:52 | 41.23356 | -8.67376 | 236 ft | 8 kts | 217° |
| 2026-05-01 11:53 | 41.23328 | -8.67459 | 232 ft | 12 kts | 258° |
| 2026-05-01 11:53 | 41.23313 | -8.67561 | 228 ft | 9 kts | 258° |
| 2026-05-01 11:53 | 41.23300 | -8.67665 | 224 ft | 13 kts | 270° |
| 2026-05-01 11:53 | 41.23364 | -8.67747 | 221 ft | 6 kts | 350° |
| 2026-05-01 11:54 | 41.23367 | -8.67748 | 221 ft | 0 kts | 350° |
| 2026-05-01 11:55 | 41.23368 | -8.67748 | 221 ft | 0 kts | 350° |
| 2026-05-01 11:55 | 41.23442 | -8.67767 | 220 ft | 45 kts | 348° |
| 2026-05-01 11:55 | 41.24041 | -8.67926 | 209 ft | 126 kts | 349° |
| 2026-05-01 11:55 | 41.25098 | -8.68209 | 382 ft | 171 kts | 347° |
| 2026-05-01 11:56 | 41.26232 | -8.68523 | 1155 ft | 171 kts | 348° |
| 2026-05-01 11:56 | 41.27393 | -8.68846 | 1979 ft | 173 kts | 348° |
| 2026-05-01 11:56 | 41.28622 | -8.69177 | 2505 ft | 189 kts | 349° |
| 2026-05-01 11:56 | 41.29939 | -8.69523 | 3040 ft | 204 kts | 349° |
| 2026-05-01 11:57 | 41.31395 | -8.69901 | 3515 ft | 225 kts | 349° |
| 2026-05-01 11:57 | 41.33005 | -8.70337 | 4042 ft | 246 kts | 348° |
| 2026-05-01 11:57 | 41.34755 | -8.70812 | 4650 ft | 265 kts | 349° |
| 2026-05-01 11:57 | 41.36586 | -8.71284 | 5370 ft | 277 kts | 349° |
| 2026-05-01 11:58 | 41.38491 | -8.71773 | 6292 ft | 282 kts | 350° |
| 2026-05-01 11:58 | 41.40454 | -8.71771 | 7125 ft | 288 kts | 18° |
| 2026-05-01 11:58 | 41.43195 | -8.68229 | 8900 ft | 288 kts | 71° |
| 2026-05-01 11:59 | 41.43559 | -8.65626 | 9685 ft | 292 kts | 86° |
| 2026-05-01 11:59 | 41.43862 | -8.62957 | 10521 ft | 298 kts | 82° |
| 2026-05-01 11:59 | 41.44141 | -8.60156 | 11090 ft | 311 kts | 89° |
| 2026-05-01 12:00 | 41.43863 | -8.54197 | 12245 ft | 332 kts | 100° |
| 2026-05-01 12:00 | 41.43552 | -8.51158 | 13074 ft | 336 kts | 101° |
| 2026-05-01 12:00 | 41.42900 | -8.44931 | 14654 ft | 344 kts | 101° |
| 2026-05-01 12:01 | 41.42572 | -8.41770 | 15365 ft | 349 kts | 101° |
| 2026-05-01 12:01 | 41.42242 | -8.38571 | 16147 ft | 354 kts | 101° |
| 2026-05-01 12:01 | 41.41907 | -8.35315 | 16824 ft | 358 kts | 101° |
| 2026-05-01 12:01 | 41.41570 | -8.32031 | 17528 ft | 363 kts | 101° |
| 2026-05-01 12:02 | 41.41225 | -8.28649 | 18235 ft | 367 kts | 101° |
| 2026-05-01 12:02 | 41.40882 | -8.25273 | 18880 ft | 371 kts | 101° |
| 2026-05-01 12:02 | 41.40534 | -8.21861 | 19502 ft | 376 kts | 101° |
| 2026-05-01 12:02 | 41.40179 | -8.18400 | 20108 ft | 380 kts | 102° |
| 2026-05-01 12:03 | 41.39819 | -8.14922 | 20706 ft | 385 kts | 102° |
| 2026-05-01 12:03 | 41.39452 | -8.11400 | 21289 ft | 389 kts | 102° |
| 2026-05-01 12:03 | 41.39079 | -8.07828 | 21875 ft | 393 kts | 102° |
| 2026-05-01 12:03 | 41.38695 | -8.04169 | 22463 ft | 397 kts | 102° |
| 2026-05-01 12:04 | 41.38316 | -8.00565 | 23039 ft | 401 kts | 102° |
| 2026-05-01 12:04 | 41.37926 | -7.96882 | 23632 ft | 405 kts | 102° |
| 2026-05-01 12:04 | 41.37529 | -7.93131 | 24203 ft | 409 kts | 102° |
| 2026-05-01 12:04 | 41.37127 | -7.89352 | 24741 ft | 413 kts | 101° |
| 2026-05-01 12:05 | 41.36726 | -7.85594 | 25280 ft | 416 kts | 101° |
| 2026-05-01 12:05 | 41.36135 | -7.77871 | 26268 ft | 427 kts | 94° |
| 2026-05-01 12:05 | 41.36224 | -7.73886 | 26763 ft | 433 kts | 88° |
| 2026-05-01 12:06 | 41.36538 | -7.69930 | 27236 ft | 437 kts | 85° |
| 2026-05-01 12:06 | 41.36913 | -7.65866 | 27697 ft | 440 kts | 85° |
| 2026-05-01 12:06 | 41.37294 | -7.61805 | 28149 ft | 444 kts | 85° |
| 2026-05-01 12:06 | 41.37667 | -7.57757 | 28619 ft | 445 kts | 85° |
| 2026-05-01 12:07 | 41.38035 | -7.53683 | 29046 ft | 448 kts | 85° |
| 2026-05-01 12:07 | 41.38397 | -7.49594 | 29443 ft | 451 kts | 85° |
| 2026-05-01 12:07 | 41.38760 | -7.45449 | 29849 ft | 453 kts | 85° |
| 2026-05-01 12:07 | 41.39120 | -7.41316 | 30343 ft | 452 kts | 85° |
| 2026-05-01 12:08 | 41.39478 | -7.37178 | 30863 ft | 450 kts | 85° |
| 2026-05-01 12:08 | 41.39832 | -7.33063 | 31369 ft | 449 kts | 86° |
| 2026-05-01 12:08 | 41.40183 | -7.28959 | 31851 ft | 447 kts | 86° |
| 2026-05-01 12:08 | 41.40530 | -7.24867 | 32307 ft | 446 kts | 86° |
| 2026-05-01 12:09 | 41.40880 | -7.20730 | 32741 ft | 446 kts | 86° |
| 2026-05-01 12:09 | 41.41223 | -7.16668 | 33102 ft | 447 kts | 86° |
| 2026-05-01 12:09 | 41.41571 | -7.12529 | 33452 ft | 447 kts | 86° |
| 2026-05-01 12:09 | 41.41912 | -7.08454 | 33799 ft | 448 kts | 86° |
| 2026-05-01 12:10 | 41.42251 | -7.04399 | 34084 ft | 449 kts | 86° |
| 2026-05-01 12:10 | 41.42940 | -6.96067 | 34116 ft | 452 kts | 86° |
| 2026-05-01 12:11 | 41.43955 | -6.83665 | 34123 ft | 452 kts | 86° |
| 2026-05-01 12:11 | 41.44626 | -6.75351 | 34124 ft | 452 kts | 86° |
| 2026-05-01 12:12 | 41.45286 | -6.67101 | 34123 ft | 452 kts | 86° |
| 2026-05-01 12:12 | 41.45941 | -6.58832 | 34123 ft | 453 kts | 86° |
| 2026-05-01 12:13 | 41.46592 | -6.50507 | 34125 ft | 453 kts | 86° |
| 2026-05-01 12:13 | 41.47236 | -6.42181 | 34126 ft | 453 kts | 86° |
| 2026-05-01 12:14 | 41.48314 | -6.34007 | 34124 ft | 454 kts | 74° |
| 2026-05-01 12:14 | 41.51032 | -6.26544 | 34121 ft | 451 kts | 56° |
| 2026-05-01 12:15 | 41.55248 | -6.20451 | 34121 ft | 450 kts | 39° |
| 2026-05-01 12:15 | 41.60155 | -6.15267 | 34122 ft | 451 kts | 37° |
| 2026-05-01 12:16 | 41.65112 | -6.10064 | 34123 ft | 451 kts | 38° |
| 2026-05-01 12:16 | 41.70011 | -6.04846 | 34123 ft | 450 kts | 38° |
| 2026-05-01 12:17 | 41.74878 | -5.99625 | 34124 ft | 450 kts | 38° |
| 2026-05-01 12:17 | 41.79711 | -5.94419 | 34122 ft | 450 kts | 38° |
| 2026-05-01 12:18 | 41.84647 | -5.89091 | 34120 ft | 450 kts | 38° |
| 2026-05-01 12:18 | 41.89536 | -5.83806 | 34123 ft | 450 kts | 38° |
| 2026-05-01 12:19 | 41.94372 | -5.78566 | 34122 ft | 450 kts | 38° |
| 2026-05-01 12:19 | 41.99242 | -5.73278 | 34123 ft | 450 kts | 38° |
| 2026-05-01 12:20 | 42.04116 | -5.67970 | 34127 ft | 451 kts | 38° |
| 2026-05-01 12:20 | 42.09002 | -5.62642 | 34129 ft | 451 kts | 38° |
| 2026-05-01 12:21 | 42.13897 | -5.57313 | 34130 ft | 452 kts | 38° |
| 2026-05-01 12:21 | 42.18734 | -5.52041 | 34135 ft | 452 kts | 38° |
| 2026-05-01 12:22 | 42.23645 | -5.46662 | 34136 ft | 452 kts | 38° |
| 2026-05-01 12:22 | 42.28496 | -5.41328 | 34137 ft | 452 kts | 39° |
| 2026-05-01 12:23 | 42.33298 | -5.36034 | 34139 ft | 451 kts | 39° |
| 2026-05-01 12:23 | 42.38037 | -5.30781 | 34144 ft | 452 kts | 39° |
| 2026-05-01 12:24 | 42.42884 | -5.25393 | 34147 ft | 452 kts | 39° |
| 2026-05-01 12:24 | 42.47738 | -5.20002 | 34149 ft | 453 kts | 39° |
| 2026-05-01 12:25 | 42.54972 | -5.11950 | 34152 ft | 452 kts | 39° |
| 2026-05-01 12:26 | 42.59833 | -5.06526 | 34153 ft | 452 kts | 39° |
| 2026-05-01 12:26 | 42.67446 | -4.99041 | 34152 ft | 452 kts | 30° |
| 2026-05-01 12:27 | 42.75943 | -4.93432 | 34157 ft | 453 kts | 22° |
| 2026-05-01 12:28 | 42.84646 | -4.88381 | 34164 ft | 454 kts | 22° |
| 2026-05-01 12:29 | 42.93333 | -4.83283 | 34168 ft | 454 kts | 22° |
| 2026-05-01 12:29 | 43.01991 | -4.78168 | 34166 ft | 454 kts | 22° |
| 2026-05-01 12:30 | 43.10661 | -4.73028 | 34167 ft | 454 kts | 22° |
| 2026-05-01 12:31 | 43.16477 | -4.69588 | 34163 ft | 455 kts | 22° |
| 2026-05-01 12:31 | 43.22302 | -4.66126 | 34154 ft | 455 kts | 22° |
| 2026-05-01 12:32 | 43.28054 | -4.62692 | 34143 ft | 455 kts | 22° |
| 2026-05-01 12:32 | 43.36753 | -4.57474 | 34119 ft | 455 kts | 22° |
| 2026-05-01 12:33 | 43.42533 | -4.53997 | 34106 ft | 455 kts | 24° |
| 2026-05-01 12:33 | 43.45178 | -4.51755 | 34077 ft | 454 kts | 42° |
| 2026-05-01 12:33 | 43.47126 | -4.48407 | 34091 ft | 451 kts | 63° |
| 2026-05-01 12:34 | 43.48144 | -4.44356 | 34094 ft | 449 kts | 83° |
| 2026-05-01 12:34 | 43.48201 | -4.40098 | 34106 ft | 447 kts | 96° |
| 2026-05-01 12:34 | 43.47601 | -4.31513 | 34090 ft | 449 kts | 97° |
| 2026-05-01 12:35 | 43.47047 | -4.23007 | 34091 ft | 449 kts | 97° |
| 2026-05-01 12:35 | 43.46515 | -4.14447 | 34093 ft | 450 kts | 96° |
| 2026-05-01 12:36 | 43.45983 | -4.05902 | 34089 ft | 449 kts | 96° |
| 2026-05-01 12:36 | 43.45718 | -4.01661 | 33802 ft | 446 kts | 96° |
| 2026-05-01 12:36 | 43.45447 | -3.97374 | 32802 ft | 454 kts | 96° |
| 2026-05-01 12:37 | 43.45172 | -3.93041 | 31660 ft | 463 kts | 96° |
| 2026-05-01 12:37 | 43.44762 | -3.88691 | 30721 ft | 467 kts | 101° |
| 2026-05-01 12:37 | 43.44156 | -3.84259 | 29959 ft | 465 kts | 102° |
| 2026-05-01 12:37 | 43.43531 | -3.79983 | 29454 ft | 459 kts | 102° |
| 2026-05-01 12:38 | 43.42899 | -3.75730 | 28937 ft | 453 kts | 103° |
| 2026-05-01 12:38 | 43.42267 | -3.71492 | 28391 ft | 448 kts | 103° |
| 2026-05-01 12:38 | 43.41650 | -3.67351 | 27838 ft | 444 kts | 103° |
| 2026-05-01 12:38 | 43.41038 | -3.63247 | 27292 ft | 440 kts | 103° |
| 2026-05-01 12:39 | 43.40430 | -3.59168 | 26667 ft | 437 kts | 103° |
| 2026-05-01 12:39 | 43.39819 | -3.55080 | 25952 ft | 437 kts | 103° |
| 2026-05-01 12:39 | 43.39207 | -3.51001 | 25243 ft | 436 kts | 103° |
| 2026-05-01 12:39 | 43.38595 | -3.46922 | 24525 ft | 435 kts | 103° |
| 2026-05-01 12:40 | 43.37985 | -3.42879 | 23808 ft | 434 kts | 103° |
| 2026-05-01 12:40 | 43.37379 | -3.38864 | 23094 ft | 433 kts | 103° |
| 2026-05-01 12:40 | 43.36765 | -3.34812 | 22343 ft | 431 kts | 103° |
| 2026-05-01 12:40 | 43.36160 | -3.30805 | 21617 ft | 430 kts | 103° |
| 2026-05-01 12:41 | 43.35561 | -3.26807 | 20874 ft | 428 kts | 103° |
| 2026-05-01 12:41 | 43.34955 | -3.22790 | 20119 ft | 427 kts | 104° |
| 2026-05-01 12:41 | 43.34359 | -3.18860 | 19383 ft | 425 kts | 104° |
| 2026-05-01 12:41 | 43.33756 | -3.14913 | 18630 ft | 423 kts | 104° |
| 2026-05-01 12:42 | 43.33146 | -3.10941 | 17879 ft | 422 kts | 104° |
| 2026-05-01 12:42 | 43.32542 | -3.07020 | 17163 ft | 419 kts | 104° |
| 2026-05-01 12:42 | 43.31945 | -3.03170 | 16416 ft | 417 kts | 104° |
| 2026-05-01 12:42 | 43.31338 | -2.99245 | 15671 ft | 415 kts | 104° |
| 2026-05-01 12:43 | 43.30733 | -2.95428 | 14949 ft | 412 kts | 105° |
| 2026-05-01 12:43 | 43.29834 | -2.91744 | 14213 ft | 400 kts | 115° |
| 2026-05-01 12:43 | 43.28703 | -2.88375 | 13501 ft | 384 kts | 117° |
| 2026-05-01 12:43 | 43.27567 | -2.85178 | 12785 ft | 369 kts | 118° |
| 2026-05-01 12:44 | 43.26463 | -2.82095 | 12073 ft | 356 kts | 118° |
| 2026-05-01 12:44 | 43.25396 | -2.79107 | 11364 ft | 344 kts | 118° |
| 2026-05-01 12:44 | 43.23358 | -2.73373 | 9976 ft | 334 kts | 118° |
| 2026-05-01 12:45 | 43.21304 | -2.67585 | 8581 ft | 340 kts | 117° |
| 2026-05-01 12:45 | 43.20289 | -2.64718 | 7862 ft | 331 kts | 117° |
| 2026-05-01 12:45 | 43.19313 | -2.61956 | 7134 ft | 318 kts | 117° |
| 2026-05-01 12:46 | 43.18562 | -2.59156 | 6387 ft | 309 kts | 98° |
| 2026-05-01 12:46 | 43.18854 | -2.56338 | 5844 ft | 298 kts | 65° |
| 2026-05-01 12:46 | 43.20162 | -2.54273 | 5474 ft | 283 kts | 31° |
| 2026-05-01 12:46 | 43.21960 | -2.53488 | 5166 ft | 268 kts | 3° |
| 2026-05-01 12:47 | 43.23769 | -2.53848 | 4883 ft | 262 kts | 338° |
| 2026-05-01 12:47 | 43.25283 | -2.55206 | 4598 ft | 260 kts | 311° |
| 2026-05-01 12:47 | 43.26222 | -2.57366 | 4486 ft | 270 kts | 284° |
| 2026-05-01 12:47 | 43.26363 | -2.59895 | 4489 ft | 266 kts | 257° |
| 2026-05-01 12:48 | 43.25847 | -2.62278 | 4482 ft | 248 kts | 249° |
| 2026-05-01 12:48 | 43.25302 | -2.64429 | 4473 ft | 233 kts | 248° |
| 2026-05-01 12:48 | 43.24786 | -2.66490 | 4465 ft | 220 kts | 249° |
| 2026-05-01 12:48 | 43.24314 | -2.68400 | 4457 ft | 209 kts | 249° |
| 2026-05-01 12:49 | 43.23852 | -2.70293 | 4466 ft | 208 kts | 249° |
| 2026-05-01 12:49 | 43.23496 | -2.72206 | 4514 ft | 202 kts | 266° |
| 2026-05-01 12:49 | 43.23775 | -2.74001 | 4480 ft | 187 kts | 290° |
| 2026-05-01 12:49 | 43.24327 | -2.75505 | 4440 ft | 169 kts | 298° |
| 2026-05-01 12:50 | 43.24908 | -2.76922 | 4864 ft | 175 kts | 298° |
| 2026-05-01 12:50 | 43.25497 | -2.78379 | 5582 ft | 184 kts | 296° |
| 2026-05-01 12:50 | 43.26096 | -2.79932 | 6258 ft | 191 kts | 294° |
| 2026-05-01 12:50 | 43.26744 | -2.81695 | 6534 ft | 222 kts | 295° |
| 2026-05-01 12:51 | 43.27511 | -2.83657 | 6703 ft | 240 kts | 296° |
| 2026-05-01 12:51 | 43.28294 | -2.85651 | 6516 ft | 238 kts | 294° |
| 2026-05-01 12:51 | 43.29667 | -2.89730 | 6129 ft | 233 kts | 293° |
| 2026-05-01 12:52 | 43.30372 | -2.91767 | 6122 ft | 235 kts | 294° |
| 2026-05-01 12:52 | 43.31823 | -2.95796 | 6118 ft | 236 kts | 295° |
| 2026-05-01 12:52 | 43.32577 | -2.97809 | 6118 ft | 236 kts | 301° |
| 2026-05-01 12:53 | 43.35229 | -3.00152 | 6122 ft | 236 kts | 344° |
| 2026-05-01 12:53 | 43.36802 | -3.00813 | 6118 ft | 237 kts | 344° |
| 2026-05-01 12:53 | 43.38438 | -3.01074 | 6103 ft | 235 kts | 9° |
| 2026-05-01 12:54 | 43.39926 | -3.00264 | 6105 ft | 232 kts | 40° |
| 2026-05-01 12:54 | 43.41162 | -2.96415 | 6115 ft | 225 kts | 98° |
| 2026-05-01 12:54 | 43.40694 | -2.94411 | 6113 ft | 222 kts | 123° |
| 2026-05-01 12:55 | 43.38202 | -2.92148 | 6110 ft | 221 kts | 173° |
| 2026-05-01 12:55 | 43.36666 | -2.92316 | 6116 ft | 222 kts | 193° |
| 2026-05-01 12:55 | 43.35157 | -2.92780 | 6117 ft | 224 kts | 189° |
| 2026-05-01 12:56 | 43.33620 | -2.93109 | 6100 ft | 222 kts | 187° |
| 2026-05-01 12:56 | 43.32083 | -2.93389 | 5841 ft | 220 kts | 181° |
| 2026-05-01 12:56 | 43.30610 | -2.92923 | 5503 ft | 220 kts | 147° |
| 2026-05-01 12:56 | 43.29584 | -2.91445 | 5246 ft | 219 kts | 119° |
| 2026-05-01 12:57 | 43.28931 | -2.89534 | 4949 ft | 219 kts | 115° |
| 2026-05-01 12:57 | 43.27668 | -2.85746 | 4431 ft | 216 kts | 116° |
| 2026-05-01 12:57 | 43.27026 | -2.83870 | 4390 ft | 217 kts | 116° |
| 2026-05-01 12:58 | 43.26382 | -2.82012 | 4386 ft | 217 kts | 116° |
| 2026-05-01 12:58 | 43.25729 | -2.80141 | 4386 ft | 217 kts | 116° |
| 2026-05-01 12:58 | 43.25069 | -2.78260 | 4384 ft | 217 kts | 116° |
| 2026-05-01 12:59 | 43.23761 | -2.74542 | 4380 ft | 217 kts | 116° |
| 2026-05-01 12:59 | 43.23100 | -2.72665 | 4390 ft | 217 kts | 116° |
| 2026-05-01 12:59 | 43.21278 | -2.69475 | 4396 ft | 215 kts | 141° |
| 2026-05-01 13:00 | 43.20393 | -2.65873 | 4385 ft | 219 kts | 66° |
| 2026-05-01 13:00 | 43.21373 | -2.64418 | 4360 ft | 209 kts | 28° |
| 2026-05-01 13:01 | 43.24073 | -2.64892 | 4187 ft | 207 kts | 315° |
| 2026-05-01 13:01 | 43.24762 | -2.66549 | 3947 ft | 199 kts | 283° |
| 2026-05-01 13:01 | 43.25189 | -2.70263 | 3321 ft | 196 kts | 275° |
| 2026-05-01 13:02 | 43.25348 | -2.72128 | 3013 ft | 195 kts | 275° |
| 2026-05-01 13:07 | 43.30634 | -2.92002 | 160 ft | 0 kts | 88° |
| 2026-05-01 13:07 | 43.30633 | -2.91994 | 161 ft | 2 kts | 95° |
| 2026-05-01 13:07 | 43.30619 | -2.91943 | 163 ft | 9 kts | 117° |
| 2026-05-01 13:08 | 43.30580 | -2.91834 | 167 ft | 15 kts | 116° |
| 2026-05-01 13:08 | 43.30527 | -2.91692 | 166 ft | 15 kts | 116° |
| 2026-05-01 13:08 | 43.30475 | -2.91553 | 166 ft | 17 kts | 117° |
| 2026-05-01 13:08 | 43.30419 | -2.91400 | 163 ft | 19 kts | 116° |
| 2026-05-01 13:09 | 43.30361 | -2.91241 | 159 ft | 14 kts | 116° |
| 2026-05-01 13:09 | 43.30315 | -2.91117 | 156 ft | 13 kts | 116° |
| 2026-05-01 13:09 | 43.30331 | -2.91022 | 157 ft | 9 kts | 30° |
| 2026-05-01 13:09 | 43.30383 | -2.90985 | 160 ft | 7 kts | 35° |
| 2026-05-01 13:10 | 43.30403 | -2.90925 | 161 ft | 7 kts | 82° |
| 2026-05-01 13:10 | 43.30416 | -2.90855 | 162 ft | 7 kts | 44° |
| 2026-05-01 13:10 | 43.30456 | -2.90826 | 165 ft | 4 kts | 25° |
| 2026-05-01 13:10 | 43.30475 | -2.90813 | 167 ft | 1 kts | 26° |
| 2026-05-01 13:11 | 43.30483 | -2.90808 | 167 ft | 2 kts | 26° |
| 2026-05-01 13:11 | 43.30485 | -2.90807 | 167 ft | 0 kts | 26° |